Time;durP1;ratioP1;P1;durP2;ratioP2;P2;SDS_P1;SDS_P2;PMS_P1;PMS_P2;Temp;Humidity;BMP_temperature;BMP_pressure;BME280_temperature;BME280_humidity;BME280_pressure;Samples;Min_cycle;Max_cycle;Signal;HPM_P1;HPM_P2
2023/04/14 00:01:37;;;;;;;6.57;4.95;;;;;;;7.71;77.65;97512.63;7388550;19;19922;-80
2023/04/14 00:04:05;;;;;;;6.88;4.93;;;;;;;7.65;77.59;97511.44;7386113;19;20020;-80
2023/04/14 00:06:32;;;;;;;6.93;5.47;;;;;;;7.60;77.60;97505.00;7394010;19;20296;-80
2023/04/14 00:08:58;;;;;;;4.65;4.25;;;;;;;7.55;77.51;97510.75;7392481;19;19922;-80
2023/04/14 00:11:26;;;;;;;5.13;4.60;;;;;;;7.56;77.55;97501.06;7413404;19;19931;-80
2023/04/14 00:13:54;;;;;;;7.45;5.80;;;;;;;7.54;77.67;97495.13;7397667;19;19919;-82
2023/04/14 00:16:21;;;;;;;7.30;6.43;;;;;;;7.55;77.90;97494.94;7391701;19;20282;-80
2023/04/14 00:18:48;;;;;;;7.35;6.65;;;;;;;7.52;77.67;97497.09;7387919;19;20260;-80
2023/04/14 00:21:15;;;;;;;6.90;6.22;;;;;;;7.46;77.58;97496.72;7381284;19;20270;-82
2023/04/14 00:23:41;;;;;;;5.93;4.82;;;;;;;7.40;77.52;97496.56;7392347;19;19957;-80
2023/04/14 00:26:09;;;;;;;5.28;4.78;;;;;;;7.36;77.45;97505.72;7389921;19;19907;-82
2023/04/14 00:28:38;;;;;;;6.60;4.90;;;;;;;7.32;77.49;97514.91;7391498;19;19930;-82
2023/04/14 00:31:05;;;;;;;7.05;4.97;;;;;;;7.25;77.39;97514.72;7388733;19;19927;-83
2023/04/14 00:33:32;;;;;;;5.63;4.85;;;;;;;7.24;77.60;97513.91;7390937;19;19915;-82
2023/04/14 00:36:00;;;;;;;6.28;5.25;;;;;;;7.25;77.61;97517.34;7391549;19;20595;-84
2023/04/14 00:38:27;;;;;;;6.72;5.50;;;;;;;7.24;77.83;97519.16;7395023;19;19923;-81
2023/04/14 00:40:54;;;;;;;6.25;4.70;;;;;;;7.30;77.86;97519.53;7389974;19;19989;-81
2023/04/14 00:43:24;;;;;;;5.15;4.60;;;;;;;7.28;78.10;97522.28;7393653;19;19921;-79
2023/04/14 00:45:51;;;;;;;5.97;4.45;;;;;;;7.24;77.86;97524.41;7391580;19;19922;-80
2023/04/14 00:48:19;;;;;;;5.78;4.35;;;;;;;7.23;77.83;97530.63;7385757;19;19922;-81
2023/04/14 00:50:46;;;;;;;5.55;4.57;;;;;;;7.22;77.87;97525.56;7409186;19;19939;-83
2023/04/14 00:53:13;;;;;;;5.93;4.38;;;;;;;7.23;78.00;97529.81;7405343;19;19918;-80
2023/04/14 00:55:40;;;;;;;5.70;5.20;;;;;;;7.21;77.92;97523.88;7404947;19;19923;-81
2023/04/14 00:58:07;;;;;;;6.78;5.65;;;;;;;7.17;78.00;97533.91;7398464;19;19929;-80
2023/04/14 01:00:35;;;;;;;7.03;5.82;;;;;;;7.19;77.92;97536.38;7406118;19;19927;-83
2023/04/14 01:03:02;;;;;;;8.00;5.00;;;;;;;7.18;77.91;97537.34;7410854;19;19925;-82
2023/04/14 01:05:29;;;;;;;9.45;6.20;;;;;;;7.14;77.78;97539.47;7408544;19;19926;-82
2023/04/14 01:07:56;;;;;;;7.35;5.78;;;;;;;7.13;77.73;97539.63;7403795;19;20746;-83
2023/04/14 01:10:29;;;;;;;6.85;5.50;;;;;;;7.11;77.92;97537.16;7409201;19;19935;-82
2023/04/14 01:13:07;;;;;;;7.85;5.32;;;;;;;7.13;78.05;97537.00;7405711;19;19926;-83
2023/04/14 01:15:46;;;;;;;8.50;5.53;;;;;;;7.15;78.07;97556.06;7409452;19;19922;-82
2023/04/14 01:18:35;;;;;;;7.68;5.50;;;;;;;7.12;78.08;97561.66;7409667;19;19922;-84
2023/04/14 01:21:10;;;;;;;6.95;5.95;;;;;;;7.14;78.21;97562.31;7408967;19;19937;-84
2023/04/14 01:23:50;;;;;;;7.28;4.75;;;;;;;7.11;78.16;97566.09;7406879;19;19918;-81
2023/04/14 01:26:18;;;;;;;8.05;4.72;;;;;;;7.08;78.07;97560.28;7401835;19;20688;-81
2023/04/14 01:29:02;;;;;;;7.22;5.40;;;;;;;7.10;78.24;97567.06;7404255;19;19927;-81
2023/04/14 01:31:47;;;;;;;7.38;6.65;;;;;;;7.07;78.23;97566.53;7402933;19;20268;-81
2023/04/14 01:34:37;;;;;;;6.65;4.95;;;;;;;7.03;78.24;97566.84;7399543;19;19929;-81
2023/04/14 01:37:07;;;;;;;8.88;6.07;;;;;;;7.04;78.16;97567.69;7399584;19;19918;-81
2023/04/14 01:39:37;;;;;;;8.57;5.65;;;;;;;7.02;77.99;97572.25;7401179;19;19955;-81
2023/04/14 01:42:08;;;;;;;7.57;6.00;;;;;;;6.98;78.00;97571.75;7396116;19;19915;-81
2023/04/14 01:44:36;;;;;;;6.65;5.22;;;;;;;6.96;78.09;97572.88;7408246;19;19943;-80
2023/04/14 01:47:07;;;;;;;7.38;5.85;;;;;;;6.95;77.98;97568.56;7398624;19;19918;-81
2023/04/14 01:49:37;;;;;;;8.77;5.65;;;;;;;6.92;77.73;97577.59;7399111;19;19937;-81
2023/04/14 01:52:07;;;;;;;6.93;5.25;;;;;;;6.88;77.48;97575.44;7397059;19;19978;-80
2023/04/14 01:54:36;;;;;;;7.70;5.55;;;;;;;6.84;77.71;97574.09;7404403;19;19926;-80
2023/04/14 01:57:03;;;;;;;9.23;5.40;;;;;;;6.77;77.70;97573.88;7402295;19;19937;-80
2023/04/14 01:59:32;;;;;;;8.15;5.40;;;;;;;6.81;78.00;97581.28;7399120;19;20322;-80
2023/04/14 02:02:01;;;;;;;8.13;6.18;;;;;;;6.88;77.99;97576.25;7384561;19;19954;-81
2023/04/14 02:04:29;;;;;;;8.15;6.90;;;;;;;6.88;78.31;97580.69;7391745;19;19930;-80
2023/04/14 02:06:58;;;;;;;9.18;5.88;;;;;;;6.91;78.41;97583.84;7393247;19;19926;-81
2023/04/14 02:09:25;;;;;;;10.90;6.57;;;;;;;6.93;78.36;97578.44;7392375;19;19918;-80
2023/04/14 02:11:53;;;;;;;7.60;5.30;;;;;;;6.90;78.41;97576.09;7388146;19;19918;-81
2023/04/14 02:14:21;;;;;;;7.85;5.93;;;;;;;6.92;78.37;97580.22;7385388;19;19918;-81
2023/04/14 02:16:50;;;;;;;8.85;6.35;;;;;;;6.90;78.42;97576.94;7392279;19;20602;-81
2023/04/14 02:19:19;;;;;;;8.57;6.35;;;;;;;6.91;78.49;97586.47;7387879;19;19922;-81
2023/04/14 02:21:48;;;;;;;9.93;6.22;;;;;;;6.87;78.32;97574.59;7388599;19;19918;-81
2023/04/14 02:24:15;;;;;;;10.77;6.03;;;;;;;6.89;77.95;97579.72;7388232;19;20337;-80
2023/04/14 02:26:50;;;;;;;9.35;6.80;;;;;;;6.86;78.36;97583.47;7394960;19;19947;-81
2023/04/14 02:29:19;;;;;;;7.47;6.00;;;;;;;6.88;78.47;97580.69;7390376;19;19925;-81
2023/04/14 02:31:56;;;;;;;10.35;6.85;;;;;;;6.90;nan;97576.94;7387703;19;19914;-80
2023/04/14 02:34:27;;;;;;;8.57;5.95;;;;;;;6.91;78.53;97575.97;7388997;19;19939;-81
2023/04/14 02:36:56;;;;;;;9.45;6.60;;;;;;;6.94;78.65;97573.00;7392437;19;19952;-80
2023/04/14 02:39:36;;;;;;;10.27;6.75;;;;;;;6.93;78.14;97574.00;7393148;19;19935;-82
2023/04/14 02:42:09;;;;;;;9.77;6.45;;;;;;;6.88;78.44;97568.38;7386380;19;19921;-81
2023/04/14 02:44:42;;;;;;;8.02;5.90;;;;;;;6.82;78.24;97571.63;7391982;19;19915;-80
2023/04/14 02:47:10;;;;;;;11.38;6.78;;;;;;;6.80;78.12;97581.47;7387847;19;19931;-81
2023/04/14 02:49:43;;;;;;;8.85;6.63;;;;;;;6.77;78.29;97579.13;7390535;19;20007;-80
2023/04/14 02:52:13;;;;;;;9.07;5.75;;;;;;;6.72;78.30;97582.22;7386042;19;20396;-80
2023/04/14 02:54:41;;;;;;;10.95;8.07;;;;;;;6.68;78.18;97583.47;7393812;19;20336;-81
2023/04/14 02:57:09;;;;;;;10.57;6.38;;;;;;;6.65;77.94;97581.16;7387357;19;20580;-81
2023/04/14 02:59:41;;;;;;;10.43;8.80;;;;;;;6.60;77.96;97578.16;7390527;19;20268;-80
2023/04/14 03:02:10;;;;;;;9.55;6.18;;;;;;;6.58;78.29;97583.56;7387441;19;20008;-80
2023/04/14 03:04:40;;;;;;;;;;;;;;;6.60;77.98;97584.22;7396074;19;19928;-79
2023/04/14 03:07:16;;;;;;;9.48;6.45;;;;;;;6.56;78.00;97576.81;7390364;19;19918;-81
2023/04/14 03:09:44;;;;;;;11.73;8.15;;;;;;;6.52;78.17;97578.06;7388901;19;19923;-82
2023/04/14 03:12:12;;;;;;;8.70;6.05;;;;;;;6.44;78.16;97572.75;7386100;19;19919;-80
2023/04/14 03:14:41;;;;;;;9.18;6.53;;;;;;;6.37;78.24;97573.34;7392368;19;19923;-80
2023/04/14 03:17:08;;;;;;;9.70;7.55;;;;;;;6.36;78.38;97576.09;7390858;19;19922;-81
2023/04/14 03:19:38;;;;;;;8.88;6.90;;;;;;;6.32;78.28;97580.03;7389052;19;19978;-83
2023/04/14 03:22:07;;;;;;;10.07;7.00;;;;;;;6.24;78.00;97582.53;7386216;19;19926;-81
2023/04/14 03:24:35;;;;;;;9.60;7.15;;;;;;;6.25;78.24;97581.59;7394862;19;19925;-81
2023/04/14 03:27:05;;;;;;;12.20;8.63;;;;;;;6.19;78.06;97575.13;7388192;19;19915;-82
2023/04/14 03:29:39;;;;;;;11.73;8.15;;;;;;;6.20;78.46;97575.94;7389265;19;19929;-81
2023/04/14 03:32:08;;;;;;;10.45;7.05;;;;;;;6.15;78.22;97579.81;7386504;19;19935;-82
2023/04/14 03:34:40;;;;;;;10.23;7.35;;;;;;;6.11;78.21;97577.66;7397057;19;19915;-82
2023/04/14 03:37:08;;;;;;;11.93;7.43;;;;;;;6.11;78.34;97586.38;7400380;19;19928;-82
2023/04/14 03:39:37;;;;;;;11.60;7.53;;;;;;;6.09;78.20;97584.84;7393777;19;19939;-81
2023/04/14 03:42:07;;;;;;;14.60;8.70;;;;;;;6.08;78.28;97578.78;7386451;19;19934;-82
2023/04/14 03:44:35;;;;;;;14.38;8.15;;;;;;;6.05;78.30;97578.22;7394691;19;19935;-80
2023/04/14 03:47:06;;;;;;;11.82;7.43;;;;;;;6.04;78.16;97584.47;7395569;19;19959;-83
2023/04/14 03:49:36;;;;;;;10.88;7.20;;;;;;;5.96;77.90;97579.13;7394230;19;19926;-82
2023/04/14 03:52:06;;;;;;;11.60;7.00;;;;;;;5.89;77.59;97581.47;7388600;19;19919;-82
2023/04/14 03:54:35;;;;;;;13.40;8.15;;;;;;;5.87;77.89;97592.13;7396608;19;19924;-82
2023/04/14 03:57:05;;;;;;;10.10;7.38;;;;;;;5.84;77.83;97583.69;7394888;19;19943;-82
2023/04/14 03:59:34;;;;;;;11.27;7.60;;;;;;;5.87;77.66;97580.78;7393364;19;19926;-82
2023/04/14 04:02:01;;;;;;;12.82;8.57;;;;;;;5.92;77.90;97574.13;7391791;19;19996;-82
2023/04/14 04:04:29;;;;;;;10.50;7.78;;;;;;;5.92;77.94;97570.66;7392733;19;19925;-82
2023/04/14 04:06:57;;;;;;;13.52;8.73;;;;;;;5.86;77.99;97573.88;7394679;19;19944;-82
2023/04/14 04:09:26;;;;;;;11.63;7.47;;;;;;;5.85;77.88;97580.13;7390995;19;19937;-79
2023/04/14 04:11:56;;;;;;;11.68;8.18;;;;;;;5.84;78.11;97578.44;7392541;19;19930;-82
2023/04/14 04:14:24;;;;;;;11.63;8.57;;;;;;;5.82;77.91;97570.72;7390134;19;20156;-81
2023/04/14 04:16:53;;;;;;;14.20;8.35;;;;;;;5.79;78.01;97578.88;7390182;19;19951;-81
2023/04/14 04:19:22;;;;;;;12.50;9.52;;;;;;;5.75;78.06;97572.28;7387518;19;19935;-81
2023/04/14 04:21:51;;;;;;;13.95;7.90;;;;;;;5.69;77.83;97573.69;7388421;19;19931;-81
2023/04/14 04:24:21;;;;;;;12.15;7.70;;;;;;;5.64;77.99;97573.28;7386474;19;19915;-82
2023/04/14 04:26:48;;;;;;;13.02;8.27;;;;;;;5.62;78.30;97579.66;7391369;19;20002;-81
2023/04/14 04:29:15;;;;;;;12.88;7.65;;;;;;;5.60;78.13;97569.28;7389505;19;19926;-81
2023/04/14 04:31:42;;;;;;;11.35;7.18;;;;;;;5.55;77.84;97578.56;7391039;19;19917;-82
2023/04/14 04:34:09;;;;;;;11.90;7.35;;;;;;;5.50;77.79;97584.22;7387930;19;19921;-83
2023/04/14 04:36:39;;;;;;;11.68;6.85;;;;;;;5.49;77.81;97585.22;7391457;19;19922;-81
2023/04/14 04:39:06;;;;;;;10.25;6.90;;;;;;;5.46;77.89;97593.38;7388431;19;19939;-81
2023/04/14 04:41:37;;;;;;;11.05;7.13;;;;;;;5.49;78.09;97586.03;7390758;19;19914;-82
2023/04/14 04:44:04;;;;;;;11.60;7.72;;;;;;;5.53;78.13;97591.84;7391057;19;19922;-81
2023/04/14 04:46:45;;;;;;;9.10;7.22;;;;;;;5.51;77.63;97585.91;7393613;19;19918;-81
2023/04/14 04:49:14;;;;;;;;;;;;;;;5.52;78.15;97582.31;7391154;19;19918;-80
2023/04/14 04:51:42;;;;;;;9.63;6.55;;;;;;;5.56;78.17;97588.94;7395036;19;20673;-82
2023/04/14 04:54:08;;;;;;;12.00;6.38;;;;;;;5.58;78.28;97594.88;7389173;19;19917;-82
2023/04/14 04:56:35;;;;;;;9.80;6.15;;;;;;;5.55;78.00;97599.56;7395665;19;19922;-83
2023/04/14 04:59:02;;;;;;;10.70;9.40;;;;;;;5.55;78.08;97599.56;7392753;19;20320;-82
2023/04/14 05:01:29;;;;;;;11.80;6.03;;;;;;;5.50;77.91;97594.72;7388641;19;19915;-82
2023/04/14 05:03:56;;;;;;;10.65;6.22;;;;;;;5.53;78.09;97606.72;7394245;19;19919;-80
2023/04/14 05:06:23;;;;;;;10.95;7.30;;;;;;;5.40;77.51;97602.66;7391375;19;19921;-81
2023/04/14 05:08:51;;;;;;;8.45;5.43;;;;;;;5.40;77.65;97607.06;7394898;19;20172;-82
2023/04/14 05:11:18;;;;;;;11.57;6.90;;;;;;;5.42;77.75;97607.72;7389733;19;19930;-82
2023/04/14 05:13:44;;;;;;;9.05;6.15;;;;;;;5.42;77.69;97603.31;7393544;19;19925;-81
2023/04/14 05:16:15;;;;;;;10.63;7.80;;;;;;;5.50;77.95;97610.47;7390961;19;20573;-81
2023/04/14 05:18:43;;;;;;;8.30;6.07;;;;;;;5.49;77.88;97609.66;7393392;19;19922;-81
2023/04/14 05:21:13;;;;;;;9.45;7.15;;;;;;;5.51;78.08;97614.75;7389264;19;19929;-82
2023/04/14 05:23:42;;;;;;;9.30;6.47;;;;;;;5.58;78.11;97612.38;7391608;19;19915;-80
2023/04/14 05:26:11;;;;;;;13.13;8.93;;;;;;;5.62;78.41;97619.84;7388387;19;20246;-81
2023/04/14 05:28:41;;;;;;;8.75;5.72;;;;;;;5.59;78.42;97614.06;7393294;19;19927;-81
2023/04/14 05:31:08;;;;;;;9.38;6.15;;;;;;;5.60;78.32;97613.06;7389257;19;19921;-81
2023/04/14 05:33:35;;;;;;;10.27;6.47;;;;;;;5.61;78.06;97612.94;7393162;19;19930;-80
2023/04/14 05:36:01;;;;;;;8.30;6.43;;;;;;;5.63;78.28;97621.47;7387858;19;19938;-83
2023/04/14 05:38:28;;;;;;;10.77;6.53;;;;;;;5.70;78.52;97629.63;7398703;19;19918;-81
2023/04/14 05:40:55;;;;;;;9.40;6.68;;;;;;;5.77;78.50;97627.25;7398710;19;19915;-81
2023/04/14 05:43:22;;;;;;;9.85;8.30;;;;;;;5.83;78.61;97632.75;7394018;19;20265;-83
2023/04/14 05:45:48;;;;;;;10.98;7.07;;;;;;;5.90;78.49;97631.22;7400964;19;19925;-81
2023/04/14 05:48:16;;;;;;;12.52;7.75;;;;;;;5.98;78.56;97637.53;7398744;19;19919;-81
2023/04/14 05:50:43;;;;;;;10.90;7.32;;;;;;;6.05;78.78;97643.88;7399454;19;19922;-82
2023/04/14 05:53:10;;;;;;;11.43;9.55;;;;;;;6.11;78.69;97641.50;7394946;19;20261;-83
2023/04/14 05:55:40;;;;;;;11.82;7.93;;;;;;;6.16;78.94;97646.31;7399352;19;19925;-81
2023/04/14 05:58:07;;;;;;;10.40;6.97;;;;;;;6.23;78.91;97652.63;7401708;19;19914;-82
2023/04/14 06:00:33;;;;;;;11.43;6.63;;;;;;;6.29;78.88;97654.69;7402211;19;19923;-84
2023/04/14 06:03:00;;;;;;;9.07;6.63;;;;;;;6.35;78.89;97659.34;7399740;19;19951;-82
2023/04/14 06:05:27;;;;;;;9.15;6.35;;;;;;;6.41;78.98;97655.31;7400423;19;19978;-82
2023/04/14 06:07:54;;;;;;;9.60;6.65;;;;;;;6.44;78.85;97655.00;7396212;19;19931;-82
2023/04/14 06:10:21;;;;;;;7.90;5.90;;;;;;;6.41;79.10;97662.38;7394913;19;19922;-82
2023/04/14 06:12:48;;;;;;;7.65;5.15;;;;;;;6.49;79.12;97662.47;7393257;19;19922;-83
2023/04/14 06:15:15;;;;;;;12.13;6.15;;;;;;;6.52;79.04;97659.53;7399054;19;19943;-82
2023/04/14 06:17:42;;;;;;;7.95;5.00;;;;;;;6.59;78.98;97669.31;7402251;19;19918;-82
2023/04/14 06:20:10;;;;;;;9.02;5.57;;;;;;;6.63;79.09;97669.81;7397441;19;20028;-82
2023/04/14 06:22:36;;;;;;;7.32;6.30;;;;;;;6.68;79.15;97658.88;7396663;19;19939;-82
2023/04/14 06:25:03;;;;;;;9.70;6.63;;;;;;;6.74;79.14;97661.75;7395986;19;19925;-81
2023/04/14 06:27:30;;;;;;;7.55;6.15;;;;;;;6.81;79.39;97664.59;7398937;19;19914;-82
2023/04/14 06:29:58;;;;;;;9.05;8.05;;;;;;;6.89;79.40;97662.03;7398414;19;20294;-82
2023/04/14 06:32:25;;;;;;;8.23;6.88;;;;;;;6.93;79.39;97660.78;7396155;19;19926;-82
2023/04/14 06:34:52;;;;;;;8.00;5.57;;;;;;;7.00;79.41;97667.09;7395927;19;19935;-81
2023/04/14 06:37:22;;;;;;;12.43;5.95;;;;;;;6.99;78.53;97669.88;7397554;19;19915;-81
2023/04/14 06:39:48;;;;;;;8.60;4.97;;;;;;;7.06;79.14;97667.44;7395561;19;19975;-81
2023/04/14 06:42:15;;;;;;;10.25;5.65;;;;;;;7.07;78.80;97662.03;7387278;19;19939;-81
2023/04/14 06:44:42;;;;;;;8.48;5.68;;;;;;;7.07;78.27;97661.22;7395693;19;19911;-81
2023/04/14 06:47:09;;;;;;;7.60;4.93;;;;;;;7.07;78.07;97653.34;7389624;19;19929;-80
2023/04/14 06:49:35;;;;;;;6.20;4.43;;;;;;;7.07;77.44;97650.72;7392055;19;19951;-81
2023/04/14 06:52:04;;;;;;;8.40;7.22;;;;;;;7.17;78.73;97649.66;7391218;19;20265;-81
2023/04/14 06:54:31;;;;;;;5.15;4.28;;;;;;;7.24;78.70;97653.31;7392752;19;19977;-82
2023/04/14 06:56:57;;;;;;;5.65;4.63;;;;;;;7.35;79.06;97649.63;7394139;19;19922;-81
2023/04/14 06:59:28;;;;;;;4.97;4.47;;;;;;;7.45;79.35;97652.13;7389760;19;20439;-82
2023/04/14 07:01:55;;;;;;;8.88;6.50;;;;;;;7.66;80.26;97642.13;7390609;19;20312;-82
2023/04/14 07:04:22;;;;;;;6.35;5.32;;;;;;;7.92;81.30;97649.16;7388201;19;19955;-81
2023/04/14 07:06:49;;;;;;;6.30;4.65;;;;;;;8.09;80.77;97644.81;7390262;19;20450;-81
2023/04/14 07:09:15;;;;;;;8.73;4.38;;;;;;;8.08;78.76;97632.59;7390385;19;19919;-83
2023/04/14 07:11:44;;;;;;;6.53;4.88;;;;;;;8.15;78.69;97631.00;7390975;19;19914;-81
2023/04/14 07:14:11;;;;;;;8.95;5.80;;;;;;;8.27;78.89;97631.53;7386115;19;20297;-81
2023/04/14 07:16:37;;;;;;;6.68;5.30;;;;;;;8.29;78.40;97614.59;7393795;19;19974;-82
2023/04/14 07:19:04;;;;;;;8.15;4.45;;;;;;;8.28;77.99;97618.19;7392007;19;19922;-82
2023/04/14 07:21:31;;;;;;;7.70;4.97;;;;;;;8.21;76.52;97625.06;7385970;19;20529;-81
2023/04/14 07:23:58;;;;;;;8.88;4.93;;;;;;;8.05;75.76;97617.13;7390691;19;19980;-81
2023/04/14 07:26:25;;;;;;;7.40;4.28;;;;;;;8.08;75.46;97616.78;7384878;19;19919;-81
2023/04/14 07:28:52;;;;;;;5.28;3.85;;;;;;;8.14;76.08;97616.19;7387118;19;19922;-81
2023/04/14 07:31:22;;;;;;;4.25;3.85;;;;;;;8.18;76.20;97606.94;7385079;19;19922;-81
2023/04/14 07:33:49;;;;;;;6.88;3.53;;;;;;;8.15;75.55;97612.53;7391590;19;19919;-80
2023/04/14 07:36:16;;;;;;;6.05;3.05;;;;;;;8.07;73.38;97615.16;7386397;19;19923;-81
2023/04/14 07:38:42;;;;;;;6.80;3.28;;;;;;;8.15;73.92;97615.19;7388357;19;19926;-81
2023/04/14 07:41:09;;;;;;;4.68;4.25;;;;;;;8.10;72.67;97610.38;7390766;19;20314;-80
2023/04/14 07:43:36;;;;;;;5.18;2.95;;;;;;;8.23;72.87;97609.94;7385990;19;19934;-80
2023/04/14 07:46:04;;;;;;;7.72;2.47;;;;;;;8.37;73.42;97605.84;7388529;19;19919;-81
2023/04/14 07:48:35;;;;;;;6.53;2.80;;;;;;;8.54;73.35;97614.69;7388973;19;20549;-81
2023/04/14 07:51:05;;;;;;;3.97;2.45;;;;;;;8.43;72.41;97612.34;7388129;19;20293;-81
2023/04/14 07:53:32;;;;;;;3.70;2.33;;;;;;;8.48;72.89;97615.34;7384747;19;19921;-80
2023/04/14 07:55:59;;;;;;;2.75;2.22;;;;;;;8.52;71.86;97614.00;7390541;19;20561;-81
2023/04/14 07:58:26;;;;;;;3.17;2.00;;;;;;;8.51;70.55;97617.63;7382701;19;19944;-81
2023/04/14 08:00:55;;;;;;;7.93;4.25;;;;;;;8.61;70.36;97618.31;7391247;19;20245;-81
2023/04/14 08:03:22;;;;;;;4.40;2.50;;;;;;;8.73;68.75;97621.47;7381443;19;19907;-81
2023/04/14 08:05:50;;;;;;;5.30;2.22;;;;;;;8.74;68.17;97618.69;7388564;19;19943;-81
2023/04/14 08:08:17;;;;;;;5.18;2.17;;;;;;;8.96;69.41;97614.56;7385083;19;20353;-81
2023/04/14 08:10:43;;;;;;;4.80;2.63;;;;;;;9.17;69.83;97622.00;7351196;19;19939;-80
2023/04/14 08:13:10;;;;;;;4.18;2.78;;;;;;;9.58;70.15;97627.22;7386234;19;20693;-81
2023/04/14 08:15:37;;;;;;;5.18;3.42;;;;;;;9.81;68.41;97616.78;7375140;19;20304;-82
2023/04/14 08:18:04;;;;;;;5.72;2.25;;;;;;;9.92;67.46;97623.50;7386935;19;20447;-80
2023/04/14 08:20:31;;;;;;;6.05;2.35;;;;;;;9.97;67.48;97615.91;7372045;19;19928;-82
2023/04/14 08:22:58;;;;;;;5.75;2.38;;;;;;;10.13;67.38;97616.84;7387073;19;19943;-81
2023/04/14 08:25:25;;;;;;;3.80;2.17;;;;;;;10.22;66.53;97614.00;7377239;19;19944;-82
2023/04/14 08:27:52;;;;;;;4.20;2.17;;;;;;;10.42;67.30;97614.41;7386373;19;19923;-82
2023/04/14 08:30:19;;;;;;;4.03;1.63;;;;;;;10.57;67.71;97613.69;7374568;19;19925;-81
2023/04/14 08:32:45;;;;;;;7.13;1.95;;;;;;;10.65;66.80;97608.34;7386866;19;19923;-81
2023/04/14 08:35:13;;;;;;;7.53;1.63;;;;;;;10.50;64.32;97605.63;7385034;19;19920;-81
2023/04/14 08:38:01;;;;;;;;;;;;;;;10.18;64.22;97606.59;7390926;19;21188;-82
2023/04/14 08:40:35;;;;;;;3.45;1.58;;;;;;;10.14;65.28;97607.91;7369957;19;19943;-83
2023/04/14 08:43:02;;;;;;;7.13;2.03;;;;;;;10.01;65.00;97597.91;7387226;19;19929;-84
2023/04/14 08:45:30;;;;;;;4.05;1.85;;;;;;;10.15;65.99;97596.34;7382464;19;20286;-81
2023/04/14 08:47:58;;;;;;;4.03;3.72;;;;;;;10.17;66.35;97602.31;7387041;19;20318;-83
2023/04/14 08:50:27;;;;;;;5.63;2.55;;;;;;;10.06;66.51;97596.41;7370656;19;19947;-81
2023/04/14 08:52:55;;;;;;;4.03;2.05;;;;;;;10.11;65.68;97595.88;7381522;19;19948;-82
2023/04/14 08:55:24;;;;;;;7.22;2.28;;;;;;;10.03;66.81;97603.81;7383301;19;19926;-81
2023/04/14 08:57:52;;;;;;;4.28;1.92;;;;;;;10.36;65.50;97601.09;7384149;19;19953;-82
2023/04/14 09:00:21;;;;;;;5.18;1.65;;;;;;;10.57;64.96;97605.75;7372885;19;19939;-82
2023/04/14 09:02:49;;;;;;;3.65;1.73;;;;;;;10.57;65.50;97603.94;7378088;19;19939;-83
2023/04/14 09:05:19;;;;;;;6.60;2.00;;;;;;;10.68;66.20;97613.28;7378110;19;20305;-81
2023/04/14 09:07:46;;;;;;;5.13;1.73;;;;;;;10.88;64.18;97601.25;7385412;19;19929;-80
2023/04/14 09:10:13;;;;;;;6.28;2.30;;;;;;;11.15;64.05;97599.06;7387438;19;19914;-82
2023/04/14 09:12:40;;;;;;;3.17;1.55;;;;;;;11.22;63.82;97607.94;7383953;19;19959;-81
2023/04/14 09:15:08;;;;;;;4.75;1.77;;;;;;;10.86;63.22;97608.53;7393014;19;19927;-82
2023/04/14 09:17:35;;;;;;;7.50;2.05;;;;;;;10.96;63.21;97603.84;7386331;19;19922;-80
2023/04/14 09:20:03;;;;;;;4.57;1.75;;;;;;;11.30;62.40;97597.28;7388538;19;19926;-81
2023/04/14 09:22:51;;;;;;;4.93;2.00;;;;;;;11.45;61.87;97594.63;7390112;19;19919;-81
2023/04/14 09:25:19;;;;;;;3.53;1.77;;;;;;;11.63;63.19;97599.59;7386829;19;19933;-81
2023/04/14 09:27:48;;;;;;;3.45;1.65;;;;;;;11.82;61.11;97590.28;7386083;19;19922;-83
2023/04/14 09:30:16;;;;;;;2.35;1.63;;;;;;;11.56;59.95;97601.34;7387514;19;19926;-81
2023/04/14 09:32:44;;;;;;;5.30;1.52;;;;;;;11.36;61.20;97595.72;7381000;19;19922;-82
2023/04/14 09:35:13;;;;;;;3.65;1.45;;;;;;;11.51;61.56;97604.53;7392431;19;20011;-82
2023/04/14 09:37:44;;;;;;;5.97;3.17;;;;;;;11.37;62.25;97606.16;7388773;19;19930;-81
2023/04/14 09:40:31;;;;;;;4.40;2.03;;;;;;;11.21;61.53;97604.44;7397312;19;19939;-81
2023/04/14 09:42:58;;;;;;;3.88;2.00;;;;;;;11.35;61.59;97596.75;7386511;19;20554;-82
2023/04/14 09:45:43;;;;;;;8.85;2.35;;;;;;;11.79;64.01;97590.66;7386399;19;19930;-81
2023/04/14 09:48:20;;;;;;;5.90;1.67;;;;;;;12.02;62.28;97595.91;7400620;19;19925;-88
2023/04/14 09:51:08;;;;;;;5.57;1.80;;;;;;;11.93;59.56;97594.34;7387826;19;19989;-81
2023/04/14 09:53:36;;;;;;;4.13;1.98;;;;;;;11.99;61.04;97598.94;7388411;19;19935;-82
2023/04/14 09:56:05;;;;;;;7.63;2.10;;;;;;;11.80;60.91;97589.66;7389750;19;19925;-82
2023/04/14 09:58:36;;;;;;;5.80;1.73;;;;;;;11.78;62.72;97587.19;7385514;19;19938;-81
2023/04/14 10:01:04;;;;;;;3.90;1.92;;;;;;;11.78;61.21;97581.88;7388254;19;20348;-81
2023/04/14 10:03:36;;;;;;;4.60;1.85;;;;;;;11.89;61.87;97588.59;7388793;19;20379;-83
2023/04/14 10:06:13;;;;;;;4.60;1.77;;;;;;;11.99;58.62;97581.19;7394085;19;19957;-82
2023/04/14 10:08:41;;;;;;;5.78;1.77;;;;;;;12.32;58.72;97575.47;7390660;19;19926;-82
2023/04/14 10:11:19;;;;;;;5.13;1.63;;;;;;;12.88;62.28;97580.97;7387858;19;19936;-82
2023/04/14 10:13:49;;;;;;;5.35;1.42;;;;;;;13.07;56.67;97571.53;7387253;19;19918;-82
2023/04/14 10:16:16;;;;;;;5.88;1.88;;;;;;;12.68;54.76;97569.31;7395708;19;19926;-83
2023/04/14 10:18:43;;;;;;;4.00;1.65;;;;;;;12.63;55.66;97577.03;7389145;19;19919;-83
2023/04/14 10:21:10;;;;;;;4.78;3.88;;;;;;;12.30;58.11;97565.06;7388047;19;20249;-83
2023/04/14 10:23:38;;;;;;;6.20;2.05;;;;;;;11.97;59.11;97561.16;7391598;19;19930;-82
2023/04/14 10:26:06;;;;;;;6.55;2.28;;;;;;;11.80;56.45;97556.03;7406869;19;19915;-82
2023/04/14 10:28:34;;;;;;;4.25;1.60;;;;;;;12.23;59.46;97545.56;7387886;19;19926;-82
2023/04/14 10:31:03;;;;;;;4.50;2.38;;;;;;;12.80;58.26;97546.59;7391824;19;19915;-83
2023/04/14 10:33:30;;;;;;;5.60;2.53;;;;;;;12.70;56.59;97546.91;7387673;19;20334;-81
2023/04/14 10:35:59;;;;;;;4.53;2.03;;;;;;;12.39;56.31;97538.41;7396917;19;19970;-82
2023/04/14 10:38:38;;;;;;;4.30;2.17;;;;;;;12.39;56.03;97538.41;7390911;19;19942;-82
2023/04/14 10:41:06;;;;;;;3.55;2.58;;;;;;;12.29;55.72;97533.41;7398422;19;20575;-84
2023/04/14 10:43:37;;;;;;;3.90;1.83;;;;;;;12.58;56.55;97529.81;7388800;19;19943;-84
2023/04/14 10:46:08;;;;;;;5.28;2.22;;;;;;;13.23;57.61;97535.09;7393734;19;19962;-83
2023/04/14 10:48:40;;;;;;;8.00;1.65;;;;;;;13.52;54.74;97528.78;7387897;19;19918;-84
2023/04/14 10:51:09;;;;;;;5.05;1.88;;;;;;;13.33;52.66;97525.81;7392001;19;19918;-81
2023/04/14 10:53:48;;;;;;;6.65;1.85;;;;;;;13.02;53.23;97518.19;7388000;19;19986;-83
2023/04/14 10:56:20;;;;;;;5.22;2.88;;;;;;;12.88;54.12;97511.94;7391417;19;20299;-83
2023/04/14 10:58:55;;;;;;;5.45;1.58;;;;;;;12.70;54.26;97508.94;7383742;19;19950;-81
2023/04/14 11:01:30;;;;;;;3.40;1.48;;;;;;;12.57;54.32;97514.94;7393652;19;19932;-81
2023/04/14 11:04:11;;;;;;;6.35;1.63;;;;;;;12.49;56.83;97504.44;7391008;19;19922;-83
2023/04/14 11:06:45;;;;;;;5.18;1.75;;;;;;;12.93;59.19;97498.09;7387106;19;20352;-82
2023/04/14 11:09:32;;;;;;;2.60;1.30;;;;;;;13.07;53.68;97497.19;7389277;19;20270;-83
2023/04/14 11:12:26;;;;;;;3.65;1.40;;;;;;;14.31;52.75;97490.25;7390048;19;19922;-81
2023/04/14 11:14:55;;;;;;;3.85;1.10;;;;;;;15.27;47.66;97490.75;7388965;19;19948;-83
2023/04/14 11:17:22;;;;;;;3.72;1.42;;;;;;;15.90;44.35;97474.19;7392773;19;19939;-83
2023/04/14 11:19:54;;;;;;;4.53;1.42;;;;;;;15.91;47.41;97481.19;7380218;19;19915;-81
2023/04/14 11:22:40;;;;;;;4.43;2.72;;;;;;;15.79;44.65;97477.53;7384854;19;20285;-82
2023/04/14 11:25:10;;;;;;;5.15;1.70;;;;;;;15.39;45.88;97477.59;7388045;19;19922;-81
2023/04/14 11:27:38;;;;;;;5.40;1.80;;;;;;;14.92;48.15;97474.19;7383871;19;19990;-81
2023/04/14 11:30:06;;;;;;;3.28;1.65;;;;;;;14.12;48.92;97481.22;7387573;19;19931;-81
2023/04/14 11:32:50;;;;;;;3.53;1.65;;;;;;;13.72;48.04;97473.09;7378898;19;19952;-81
2023/04/14 11:35:18;;;;;;;8.60;2.55;;;;;;;13.66;47.66;97482.66;7388947;19;20393;-81
2023/04/14 11:37:45;;;;;;;4.05;1.20;;;;;;;13.49;47.93;97481.34;7381279;19;19943;-80
2023/04/14 11:40:14;;;;;;;4.25;1.50;;;;;;;13.43;49.69;97485.63;7385365;19;19918;-82
2023/04/14 11:42:47;;;;;;;5.15;2.15;;;;;;;13.28;50.73;97479.59;7382452;19;20388;-81
2023/04/14 11:45:14;;;;;;;3.15;1.27;;;;;;;13.78;50.23;97481.09;7390888;19;19922;-82
2023/04/14 11:47:57;;;;;;;4.47;2.45;;;;;;;15.12;49.81;97480.31;7385905;19;20417;-82
2023/04/14 11:50:25;;;;;;;5.72;1.75;;;;;;;16.10;43.85;97473.28;7388182;19;19930;-81